Aviation Digital Data Service (ADDS)

Output produced by METARs form (0117 UTC 16 January 2019)
found at http://www.aviationweather.gov/metar/data/
 
TJBQ 152322Z 1600/1624 10006KT P6SM FEW025 
     FM161400 08013KT P6SM SCT025 
     FM161800 06012KT P6SM RA FEW030 
     FM162100 10008KT P6SM RA BKN030 AMD NOT SKED 1602/1611
       
TJMZ 152322Z 1600/1624 09005KT P6SM FEW040 
     FM161530 27010KT P6SM VCSH SCT025 SCT040 
     FM161800 28010KT P6SM RA SCT030 
     FM162100 13005KT P6SM BKN050 AMD NOT SKED
       
TJPS 152322Z 1600/1624 07005KT P6SM FEW025 SCT030 
     FM160300 VRB03KT P6SM FEW040 
     FM161400 16010KT P6SM FEW030 SCT060 
     FM161500 14008KT P6SM -RA FEW030 
     FM162100 12007KT P6SM RA BKN025
       
TJSJ 152322Z 1600/1624 09007KT P6SM FEW025 
     FM161300 08012KT P6SM VCSH SCT025 
     FM161600 07010KT P6SM -RA FEW030 
     FM162100 09008KT P6SM BKN030